Time;durP1;ratioP1;P1;durP2;ratioP2;P2;SDS_P1;SDS_P2;PMS_P1;PMS_P2;Temp;Humidity;BMP_temperature;BMP_pressure;BME280_temperature;BME280_humidity;BME280_pressure;Samples;Min_cycle;Max_cycle;Signal;HPM_P1;HPM_P2
2022/12/02 00:01:04;;;;;;;;;;;6.70;99.90;;;;;;5075007;28;19912;-82
2022/12/02 00:03:31;;;;;;;;;;;6.70;99.90;;;;;;5075309;28;19909;-82
2022/12/02 00:05:57;;;;;;;;;;;6.70;99.90;;;;;;5075113;28;19909;-82
2022/12/02 00:08:24;;;;;;;;;;;6.70;99.90;;;;;;5073662;28;20376;-82
2022/12/02 00:10:51;;;;;;;;;;;6.70;99.90;;;;;;5073699;28;19909;-82
2022/12/02 00:13:24;;;;;;;;;;;6.80;99.90;;;;;;5073411;28;19908;-82
2022/12/02 00:15:51;;;;;;;;;;;6.80;99.90;;;;;;5074878;28;19913;-82
2022/12/02 00:18:17;;;;;;;;;;;6.70;99.90;;;;;;5074920;28;19913;-82
2022/12/02 00:20:43;;;;;;;;;;;6.80;99.90;;;;;;5074887;28;20401;-82
2022/12/02 00:23:09;;;;;;;;;;;6.70;99.90;;;;;;5073764;28;20015;-82
2022/12/02 00:25:35;;;;;;;;;;;6.70;99.90;;;;;;5073853;28;19913;-82
2022/12/02 00:28:00;;;;;;;;;;;6.70;99.90;;;;;;5074170;28;19913;-82
2022/12/02 00:30:26;;;;;;;;;;;6.70;99.90;;;;;;5074588;28;20464;-82
2022/12/02 00:32:52;;;;;;;;;;;6.50;99.90;;;;;;5074455;28;20075;-82
2022/12/02 00:35:17;;;;;;;;;;;6.60;99.90;;;;;;5073483;28;19919;-82
2022/12/02 00:37:43;;;;;;;;;;;6.60;99.90;;;;;;5074508;28;19909;-82
2022/12/02 00:40:09;;;;;;;;;;;6.50;99.90;;;;;;5074474;28;19938;-83
2022/12/02 00:42:34;;;;;;;;;;;6.50;99.90;;;;;;5072782;28;20285;-82
2022/12/02 00:47:43;;;;;;;;;;;6.50;99.90;;;;;;5074309;28;19954;-83
2022/12/02 00:50:09;;;;;;;;;;;6.50;99.90;;;;;;5072955;28;19908;-82
2022/12/02 00:52:35;;;;;;;;;;;6.50;99.90;;;;;;5073950;28;19917;-82
2022/12/02 00:55:00;;;;;;;;;;;6.50;99.90;;;;;;5073259;28;19954;-82
2022/12/02 00:57:26;;;;;;;;;;;6.50;99.90;;;;;;5074061;28;19916;-82
2022/12/02 00:59:51;;;;;;;;;;;6.50;99.90;;;;;;5073835;28;20019;-82
2022/12/02 01:02:16;;;;;;;;;;;6.40;99.90;;;;;;5072463;28;19913;-82
2022/12/02 01:04:42;;;;;;;;;;;6.40;99.90;;;;;;5074161;28;19909;-83
2022/12/02 01:07:07;;;;;;;;;;;6.40;99.90;;;;;;5072632;28;20370;-82
2022/12/02 01:09:33;;;;;;;;;;;6.30;99.90;;;;;;5074062;28;19908;-82
2022/12/02 01:11:58;;;;;;;;;;;6.30;99.90;;;;;;5073622;28;19912;-82
2022/12/02 01:14:24;;;;;;;;;;;6.30;99.90;;;;;;5072673;28;19912;-82
2022/12/02 01:16:49;;;;;;;;;;;6.30;99.90;;;;;;5073834;28;19916;-83
2022/12/02 01:19:15;;;;;;;;;;;6.20;99.90;;;;;;5073688;28;19915;-82
2022/12/02 01:21:40;;;;;;;;;;;6.20;99.90;;;;;;5073306;28;20003;-83
2022/12/02 01:24:06;;;;;;;;;;;6.20;99.90;;;;;;5073763;28;19916;-82
2022/12/02 01:26:31;;;;;;;;;;;6.20;99.90;;;;;;5073514;28;19999;-82
2022/12/02 01:28:57;;;;;;;;;;;6.10;99.90;;;;;;5073501;28;20320;-82
2022/12/02 01:31:22;;;;;;;;;;;6.10;99.90;;;;;;5073295;28;20010;-82
2022/12/02 01:33:47;;;;;;;;;;;6.10;99.90;;;;;;5073507;28;19916;-82
2022/12/02 01:36:13;;;;;;;;;;;6.20;99.90;;;;;;5072158;28;19912;-83
2022/12/02 01:38:38;;;;;;;;;;;6.20;99.90;;;;;;5072486;28;19908;-82
2022/12/02 01:41:04;;;;;;;;;;;6.20;99.90;;;;;;5071781;28;19912;-82
2022/12/02 01:43:30;;;;;;;;;;;6.10;99.90;;;;;;5073294;28;19909;-82
2022/12/02 01:45:56;;;;;;;;;;;6.10;99.90;;;;;;5073279;28;19916;-82
2022/12/02 01:48:21;;;;;;;;;;;6.20;99.90;;;;;;5071630;28;19920;-83
2022/12/02 01:50:47;;;;;;;;;;;6.10;99.90;;;;;;5072088;28;19954;-82
2022/12/02 01:53:13;;;;;;;;;;;6.20;99.90;;;;;;5071728;28;19914;-82
2022/12/02 01:55:38;;;;;;;;;;;6.10;99.90;;;;;;5071715;28;19908;-82
2022/12/02 01:58:04;;;;;;;;;;;6.10;99.90;;;;;;5071760;28;19913;-82
2022/12/02 02:00:29;;;;;;;;;;;6.20;99.90;;;;;;5072961;28;19966;-82
2022/12/02 02:02:55;;;;;;;;;;;6.20;99.90;;;;;;5071516;28;19909;-82
2022/12/02 02:05:25;;;;;;;;;;;6.20;99.90;;;;;;5071588;28;19915;-82
2022/12/02 02:07:52;;;;;;;;;;;6.30;99.90;;;;;;5072836;28;19963;-82
2022/12/02 02:10:18;;;;;;;;;;;6.40;99.90;;;;;;5072955;28;19913;-83
2022/12/02 02:12:45;;;;;;;;;;;6.40;99.90;;;;;;5072614;28;19962;-82
2022/12/02 02:15:11;;;;;;;;;;;6.40;99.90;;;;;;5072901;28;20374;-82
2022/12/02 02:17:37;;;;;;;;;;;6.40;99.90;;;;;;5071571;28;19908;-82
2022/12/02 02:20:03;;;;;;;;;;;6.40;99.90;;;;;;5072951;28;20377;-83
2022/12/02 02:22:38;;;;;;;;;;;6.40;99.90;;;;;;5072483;28;19909;-82
2022/12/02 02:25:10;;;;;;;;;;;6.50;99.90;;;;;;5072754;28;19909;-82
2022/12/02 02:27:36;;;;;;;;;;;6.50;99.90;;;;;;5072587;28;19920;-82
2022/12/02 02:30:02;;;;;;;;;;;6.50;99.90;;;;;;5072636;28;19913;-82
2022/12/02 02:32:28;;;;;;;;;;;6.50;99.90;;;;;;5071105;28;20449;-82
2022/12/02 02:34:53;;;;;;;;;;;6.50;99.90;;;;;;5072724;28;19948;-82
2022/12/02 02:37:19;;;;;;;;;;;6.50;99.90;;;;;;5071289;28;19912;-82
2022/12/02 02:39:44;;;;;;;;;;;6.50;99.90;;;;;;5072687;28;19944;-82
2022/12/02 02:42:10;;;;;;;;;;;6.60;99.90;;;;;;5072387;28;19912;-82
2022/12/02 02:44:35;;;;;;;;;;;6.50;99.90;;;;;;5072803;28;19908;-82
2022/12/02 02:47:01;;;;;;;;;;;6.50;99.90;;;;;;5071361;28;19919;-82
2022/12/02 02:49:26;;;;;;;;;;;6.50;99.90;;;;;;5072132;28;19916;-82
2022/12/02 02:51:52;;;;;;;;;;;6.50;99.90;;;;;;5076423;28;19908;-82
2022/12/02 02:54:18;;;;;;;;;;;6.50;99.90;;;;;;5075161;28;19909;-82
2022/12/02 02:56:43;;;;;;;;;;;6.60;99.90;;;;;;5076511;28;19909;-82
2022/12/02 02:59:12;;;;;;;;;;;6.60;99.90;;;;;;5075959;28;19917;-82
2022/12/02 03:01:38;;;;;;;;;;;6.60;99.90;;;;;;5093778;22;19924;-88
2022/12/02 03:04:06;;;;;;;;;;;6.50;99.90;;;;;;5082352;28;20391;-88
2022/12/02 03:06:34;;;;;;;;;;;6.50;99.90;;;;;;5082359;28;20003;-88
2022/12/02 03:09:01;;;;;;;;;;;6.60;99.90;;;;;;5078414;28;19938;-89
2022/12/02 03:11:26;;;;;;;;;;;6.60;99.90;;;;;;5074715;28;19912;-89
2022/12/02 03:13:52;;;;;;;;;;;6.60;99.90;;;;;;5077268;28;20335;-88
2022/12/02 03:16:20;;;;;;;;;;;6.50;99.90;;;;;;5077026;28;19908;-88
2022/12/02 03:18:45;;;;;;;;;;;6.50;99.90;;;;;;5071114;28;20290;-88
2022/12/02 03:21:12;;;;;;;;;;;6.50;99.90;;;;;;5082426;28;19908;-88
2022/12/02 03:23:38;;;;;;;;;;;6.50;99.90;;;;;;5081347;28;19915;-88
2022/12/02 03:26:04;;;;;;;;;;;6.50;99.90;;;;;;5081505;28;20336;-88
2022/12/02 03:28:29;;;;;;;;;;;6.50;99.90;;;;;;5076067;28;20289;-88
2022/12/02 03:30:55;;;;;;;;;;;6.60;99.90;;;;;;5069909;28;19909;-88
2022/12/02 03:33:21;;;;;;;;;;;6.50;99.90;;;;;;5061012;28;19909;-88
2022/12/02 03:35:47;;;;;;;;;;;6.50;99.90;;;;;;5078991;28;20293;-88
2022/12/02 03:38:13;;;;;;;;;;;6.50;99.90;;;;;;5080699;28;19991;-88
2022/12/02 03:40:38;;;;;;;;;;;6.40;99.90;;;;;;5080957;28;19958;-88
2022/12/02 03:43:04;;;;;;;;;;;6.40;99.90;;;;;;5080451;28;19915;-88
2022/12/02 03:45:29;;;;;;;;;;;6.40;99.90;;;;;;5081632;28;19909;-88
2022/12/02 03:47:55;;;;;;;;;;;6.40;99.90;;;;;;5080984;28;19912;-88
2022/12/02 03:50:21;;;;;;;;;;;6.40;99.90;;;;;;5080918;28;19965;-88
2022/12/02 03:52:47;;;;;;;;;;;6.50;99.90;;;;;;5080230;28;19919;-88
2022/12/02 03:55:12;;;;;;;;;;;6.40;99.90;;;;;;5080622;28;20376;-88
2022/12/02 03:57:39;;;;;;;;;;;6.40;99.90;;;;;;5081079;28;19909;-88
2022/12/02 04:00:05;;;;;;;;;;;6.40;99.90;;;;;;5080610;28;19924;-88
2022/12/02 04:02:31;;;;;;;;;;;6.40;99.90;;;;;;5080801;28;19916;-88
2022/12/02 04:04:56;;;;;;;;;;;6.40;99.90;;;;;;5080506;28;19980;-88
2022/12/02 04:07:22;;;;;;;;;;;6.40;99.90;;;;;;5079817;28;19934;-88
2022/12/02 04:09:47;;;;;;;;;;;6.40;99.90;;;;;;5081047;28;19909;-88
2022/12/02 04:12:13;;;;;;;;;;;6.30;99.90;;;;;;5080475;28;19915;-88
2022/12/02 04:14:38;;;;;;;;;;;6.30;99.90;;;;;;5077729;28;19912;-88
2022/12/02 04:17:04;;;;;;;;;;;6.30;99.90;;;;;;5077766;28;20361;-87
2022/12/02 04:19:29;;;;;;;;;;;6.30;99.90;;;;;;5078240;28;20008;-87
2022/12/02 04:21:55;;;;;;;;;;;6.30;99.90;;;;;;5077900;28;19909;-88
2022/12/02 04:24:20;;;;;;;;;;;6.30;99.90;;;;;;5076691;28;19916;-87
2022/12/02 04:26:45;;;;;;;;;;;6.30;99.90;;;;;;5076335;28;20398;-88
2022/12/02 04:29:11;;;;;;;;;;;6.30;99.90;;;;;;5076714;28;19909;-87
2022/12/02 04:31:36;;;;;;;;;;;6.30;99.90;;;;;;5076340;28;19913;-88
2022/12/02 04:34:02;;;;;;;;;;;6.40;99.90;;;;;;5075065;28;20289;-89
2022/12/02 04:36:27;;;;;;;;;;;6.30;99.90;;;;;;5075442;28;19913;-88
2022/12/02 04:38:53;;;;;;;;;;;6.40;99.90;;;;;;5059372;28;19916;-88
2022/12/02 04:41:18;;;;;;;;;;;6.40;99.90;;;;;;5054955;28;19909;-87
2022/12/02 04:43:44;;;;;;;;;;;6.40;99.90;;;;;;5059895;28;19931;-88
2022/12/02 04:46:09;;;;;;;;;;;6.40;99.90;;;;;;5057505;28;19968;-89
2022/12/02 04:48:35;;;;;;;;;;;6.40;99.90;;;;;;5053028;28;20371;-89
2022/12/02 04:51:00;;;;;;;;;;;6.40;99.90;;;;;;5052680;28;19916;-89
2022/12/02 04:53:26;;;;;;;;;;;6.40;99.90;;;;;;5053271;28;19913;-90
2022/12/02 04:55:51;;;;;;;;;;;6.40;99.90;;;;;;5052971;28;20008;-90
2022/12/02 04:58:17;;;;;;;;;;;6.40;99.90;;;;;;5054182;28;19912;-88
2022/12/02 05:00:42;;;;;;;;;;;6.40;99.90;;;;;;5052793;28;19966;-89
2022/12/02 05:03:08;;;;;;;;;;;6.40;99.90;;;;;;5052719;28;19919;-89
2022/12/02 05:05:33;;;;;;;;;;;6.40;99.90;;;;;;5052709;28;19909;-89
2022/12/02 05:07:58;;;;;;;;;;;6.40;99.90;;;;;;5052977;28;19982;-86
2022/12/02 05:10:24;;;;;;;;;;;6.40;99.90;;;;;;5053036;28;19908;-89
2022/12/02 05:12:50;;;;;;;;;;;6.40;99.90;;;;;;5052344;28;20413;-89
2022/12/02 05:15:15;;;;;;;;;;;6.50;99.90;;;;;;5052597;28;19932;-88
2022/12/02 05:17:41;;;;;;;;;;;6.50;99.90;;;;;;5052577;28;19908;-89
2022/12/02 05:20:06;;;;;;;;;;;6.40;99.90;;;;;;5052609;28;20547;-90
2022/12/02 05:22:32;;;;;;;;;;;6.40;99.90;;;;;;5052516;28;19916;-89
2022/12/02 05:24:57;;;;;;;;;;;6.40;99.90;;;;;;5052764;28;19913;-89
2022/12/02 05:27:35;;;;;;;;;;;;;;;;;;;;;
2022/12/02 05:30:02;;;;;;;;;;;6.40;99.90;;;;;;5054026;28;19909;-87
2022/12/02 05:32:32;;;;;;;;;;;6.40;99.90;;;;;;5053535;28;19959;-87
2022/12/02 05:34:58;;;;;;;;;;;6.40;99.90;;;;;;5055232;28;20388;-86
2022/12/02 05:37:26;;;;;;;;;;;6.30;99.90;;;;;;5054927;28;19948;-88
2022/12/02 05:39:52;;;;;;;;;;;6.30;99.90;;;;;;5056052;28;20506;-88
2022/12/02 05:42:19;;;;;;;;;;;6.40;99.90;;;;;;5057169;28;19913;-88
2022/12/02 05:44:45;;;;;;;;;;;6.40;99.90;;;;;;5058547;28;19908;-88
2022/12/02 05:47:12;;;;;;;;;;;6.40;99.90;;;;;;5058870;28;20066;-88
2022/12/02 05:49:38;;;;;;;;;;;6.40;99.90;;;;;;5057283;28;20034;-90
2022/12/02 05:52:12;;;;;;;;;;;6.40;99.90;;;;;;5051694;28;19908;-90
2022/12/02 05:54:38;;;;;;;;;;;6.40;99.90;;;;;;5051938;28;19909;-89
2022/12/02 05:57:05;;;;;;;;;;;6.40;99.90;;;;;;5051945;28;19916;-89
2022/12/02 05:59:31;;;;;;;;;;;6.40;99.90;;;;;;5053056;28;19908;-89
2022/12/02 06:01:58;;;;;;;;;;;6.40;99.90;;;;;;5052728;28;20015;-87
2022/12/02 06:04:24;;;;;;;;;;;6.30;99.90;;;;;;5054258;28;19913;-87
2022/12/02 06:06:51;;;;;;;;;;;6.30;99.90;;;;;;5055215;28;20370;-87
2022/12/02 06:09:17;;;;;;;;;;;6.30;99.90;;;;;;5055222;28;19928;-87
2022/12/02 06:11:43;;;;;;;;;;;6.30;99.90;;;;;;5054430;28;20350;-87
2022/12/02 06:14:17;;;;;;;;;;;6.30;99.90;;;;;;5054937;28;20000;-87
2022/12/02 06:16:44;;;;;;;;;;;6.30;99.90;;;;;;5055202;28;19909;-88
2022/12/02 06:19:25;;;;;;;;;;;6.40;99.90;;;;;;5054668;28;19935;-88
2022/12/02 06:21:50;;;;;;;;;;;6.40;99.90;;;;;;5054117;28;19935;-88
2022/12/02 06:24:19;;;;;;;;;;;6.40;99.90;;;;;;5054182;28;19913;-87
2022/12/02 06:26:45;;;;;;;;;;;6.40;99.90;;;;;;5054920;28;20051;-87
2022/12/02 06:29:14;;;;;;;;;;;6.40;99.90;;;;;;5054263;28;19963;-87
2022/12/02 06:31:43;;;;;;;;;;;6.40;99.90;;;;;;5054702;28;20366;-87
2022/12/02 06:34:23;;;;;;;;;;;6.40;99.90;;;;;;5054440;28;19909;-87
2022/12/02 06:36:49;;;;;;;;;;;6.40;99.90;;;;;;5054698;28;20432;-88
2022/12/02 06:39:19;;;;;;;;;;;6.40;99.90;;;;;;5055911;28;19909;-88
2022/12/02 06:41:44;;;;;;;;;;;6.40;99.90;;;;;;5054737;28;19908;-88
2022/12/02 06:47:23;;;;;;;;;;;6.40;99.90;;;;;;5056075;28;19919;-87
2022/12/02 06:49:49;;;;;;;;;;;6.50;99.90;;;;;;5054101;28;20258;-87
2022/12/02 06:52:20;;;;;;;;;;;6.40;99.90;;;;;;5062250;28;19915;-88
2022/12/02 06:54:46;;;;;;;;;;;6.40;99.90;;;;;;5074922;28;19912;-87
2022/12/02 06:57:14;;;;;;;;;;;6.40;99.90;;;;;;5074844;28;20288;-87
2022/12/02 06:59:40;;;;;;;;;;;6.40;99.90;;;;;;5074844;28;19955;-87
2022/12/02 07:02:15;;;;;;;;;;;6.50;99.90;;;;;;5074530;28;19917;-88
2022/12/02 07:04:46;;;;;;;;;;;6.50;99.90;;;;;;5074723;28;19958;-87
2022/12/02 07:07:19;;;;;;;;;;;6.50;99.90;;;;;;5073771;28;19924;-87
2022/12/02 07:09:51;;;;;;;;;;;6.50;99.90;;;;;;5074270;28;20370;-88
2022/12/02 07:12:21;;;;;;;;;;;6.50;99.90;;;;;;5073886;28;19913;-87
2022/12/02 07:14:46;;;;;;;;;;;6.50;99.90;;;;;;5074363;28;19924;-88
2022/12/02 07:17:15;;;;;;;;;;;6.50;99.90;;;;;;5074457;28;19908;-87
2022/12/02 07:19:42;;;;;;;;;;;6.50;99.90;;;;;;5075047;28;19909;-88
2022/12/02 07:22:33;;;;;;;;;;;6.50;99.90;;;;;;5073948;28;20009;-87
2022/12/02 07:25:08;;;;;;;;;;;6.50;99.90;;;;;;5037194;28;20281;-89
2022/12/02 07:27:36;;;;;;;;;;;6.40;99.90;;;;;;5050771;28;20293;-88
2022/12/02 07:30:16;;;;;;;;;;;6.50;99.90;;;;;;5051055;28;19916;-89
2022/12/02 07:32:41;;;;;;;;;;;6.50;99.90;;;;;;5034084;28;19916;-89
2022/12/02 07:35:07;;;;;;;;;;;6.40;99.90;;;;;;5050857;28;19909;-89
2022/12/02 07:37:32;;;;;;;;;;;6.50;99.90;;;;;;5053483;28;20339;-89
2022/12/02 07:39:58;;;;;;;;;;;6.40;99.90;;;;;;5054534;28;19909;-90
2022/12/02 07:42:23;;;;;;;;;;;6.40;99.90;;;;;;5056548;28;19955;-87
2022/12/02 07:44:49;;;;;;;;;;;6.40;99.90;;;;;;5057795;28;20012;-88
2022/12/02 07:47:14;;;;;;;;;;;6.50;99.90;;;;;;5055971;28;19912;-87
2022/12/02 07:49:40;;;;;;;;;;;6.40;99.90;;;;;;5056660;28;19955;-88
2022/12/02 07:52:05;;;;;;;;;;;6.50;99.90;;;;;;5057393;28;20047;-87
2022/12/02 07:54:32;;;;;;;;;;;6.50;99.90;;;;;;5072969;28;20425;-88
2022/12/02 07:56:58;;;;;;;;;;;6.50;99.90;;;;;;5077521;28;19916;-87
2022/12/02 07:59:23;;;;;;;;;;;6.50;99.90;;;;;;5076792;28;19912;-88
2022/12/02 08:01:48;;;;;;;;;;;6.50;99.90;;;;;;5076721;28;20031;-87
2022/12/02 08:04:14;;;;;;;;;;;6.60;99.90;;;;;;5077447;28;19999;-86
2022/12/02 08:06:40;;;;;;;;;;;6.50;99.90;;;;;;5077236;28;20381;-88
2022/12/02 08:09:05;;;;;;;;;;;6.50;99.90;;;;;;5077228;28;19962;-87
2022/12/02 08:11:31;;;;;;;;;;;6.60;99.90;;;;;;5075533;28;19908;-88
2022/12/02 08:13:56;;;;;;;;;;;6.60;99.90;;;;;;5075684;28;19987;-87
2022/12/02 08:16:22;;;;;;;;;;;6.60;99.90;;;;;;5075093;28;19915;-87
2022/12/02 08:18:47;;;;;;;;;;;6.60;99.90;;;;;;5074917;28;20377;-87
2022/12/02 08:21:13;;;;;;;;;;;6.60;99.90;;;;;;5075075;28;19954;-87
2022/12/02 08:23:38;;;;;;;;;;;6.60;99.90;;;;;;5075164;28;19916;-87
2022/12/02 08:26:04;;;;;;;;;;;6.70;99.90;;;;;;5075270;28;19943;-87
2022/12/02 08:28:29;;;;;;;;;;;6.60;99.90;;;;;;5075197;28;19912;-87
2022/12/02 08:30:55;;;;;;;;;;;6.60;99.90;;;;;;5075276;28;19936;-87
2022/12/02 08:33:20;;;;;;;;;;;6.60;99.90;;;;;;5075425;28;19909;-87
2022/12/02 08:35:46;;;;;;;;;;;6.60;99.90;;;;;;5073439;28;20384;-86
2022/12/02 08:38:11;;;;;;;;;;;6.50;99.90;;;;;;5073675;28;19909;-87
2022/12/02 08:40:37;;;;;;;;;;;6.50;99.90;;;;;;5073623;28;20408;-86
2022/12/02 08:43:05;;;;;;;;;;;6.50;99.90;;;;;;5073007;28;19909;-89
2022/12/02 08:45:31;;;;;;;;;;;6.50;99.90;;;;;;5065540;28;19967;-87
2022/12/02 08:47:56;;;;;;;;;;;6.40;99.90;;;;;;5069322;28;20341;-88
2022/12/02 08:50:22;;;;;;;;;;;6.40;99.90;;;;;;5065620;28;19913;-88
2022/12/02 08:52:47;;;;;;;;;;;6.30;99.90;;;;;;5072531;28;19913;-87
2022/12/02 08:55:13;;;;;;;;;;;6.40;99.90;;;;;;5067950;28;19913;-85
2022/12/02 08:57:38;;;;;;;;;;;6.40;99.90;;;;;;5062335;28;19909;-87
2022/12/02 09:00:06;;;;;;;;;;;6.30;99.90;;;;;;5073459;28;20015;-87
2022/12/02 09:02:32;;;;;;;;;;;6.40;99.90;;;;;;5072792;28;19922;-88
2022/12/02 09:04:58;;;;;;;;;;;6.40;99.90;;;;;;5058468;28;19916;-87
2022/12/02 09:07:23;;;;;;;;;;;6.30;99.90;;;;;;5052644;28;20029;-86
2022/12/02 09:09:49;;;;;;;;;;;6.30;99.90;;;;;;5066188;28;19951;-87
2022/12/02 09:12:14;;;;;;;;;;;6.20;99.90;;;;;;5072329;28;19999;-87
2022/12/02 09:14:40;;;;;;;;;;;6.20;99.90;;;;;;5072457;28;20362;-88
2022/12/02 09:17:05;;;;;;;;;;;6.10;99.90;;;;;;5072200;28;19958;-88
2022/12/02 09:19:30;;;;;;;;;;;6.10;99.90;;;;;;5072432;28;19909;-88
2022/12/02 09:21:56;;;;;;;;;;;6.10;99.90;;;;;;5072013;28;20319;-88
2022/12/02 09:24:22;;;;;;;;;;;6.10;99.90;;;;;;5071779;28;19909;-88
2022/12/02 09:26:47;;;;;;;;;;;6.10;99.90;;;;;;5072027;28;19908;-88
2022/12/02 09:29:13;;;;;;;;;;;6.10;99.90;;;;;;5072459;28;19912;-88
2022/12/02 09:31:38;;;;;;;;;;;6.20;99.90;;;;;;5071664;28;19953;-88
2022/12/02 09:34:04;;;;;;;;;;;6.20;99.90;;;;;;5072082;28;19947;-88
2022/12/02 09:36:29;;;;;;;;;;;6.30;99.90;;;;;;5070598;28;19908;-86
2022/12/02 09:38:55;;;;;;;;;;;6.30;99.90;;;;;;5071202;28;19963;-88
2022/12/02 09:41:21;;;;;;;;;;;6.30;99.90;;;;;;5071865;28;20354;-87
2022/12/02 09:43:46;;;;;;;;;;;6.30;99.90;;;;;;5071617;28;19913;-86
2022/12/02 09:46:12;;;;;;;;;;;6.30;99.90;;;;;;5072167;28;19958;-89
2022/12/02 09:48:37;;;;;;;;;;;6.30;99.90;;;;;;5071954;28;19912;-89
2022/12/02 09:51:03;;;;;;;;;;;6.30;99.90;;;;;;5071610;28;19919;-88
2022/12/02 09:53:32;;;;;;;;;;;6.40;99.90;;;;;;5071717;28;19909;-87
2022/12/02 09:55:57;;;;;;;;;;;6.40;99.90;;;;;;5071483;28;20344;-89
2022/12/02 09:58:24;;;;;;;;;;;6.50;99.90;;;;;;5071987;28;19951;-87
2022/12/02 10:00:50;;;;;;;;;;;6.40;99.90;;;;;;5071883;28;19971;-87
2022/12/02 10:03:16;;;;;;;;;;;6.40;99.90;;;;;;5072149;28;20457;-87
2022/12/02 10:05:42;;;;;;;;;;;6.50;99.90;;;;;;5072345;28;19920;-86
2022/12/02 10:08:17;;;;;;;;;;;6.40;99.90;;;;;;5072367;28;20393;-87
2022/12/02 10:10:44;;;;;;;;;;;6.40;99.90;;;;;;5071895;28;20398;-87
2022/12/02 10:13:14;;;;;;;;;;;6.40;99.90;;;;;;5072181;28;20343;-87
2022/12/02 10:15:40;;;;;;;;;;;6.40;99.90;;;;;;5072351;28;19908;-87
2022/12/02 10:18:16;;;;;;;;;;;6.50;99.90;;;;;;5072163;28;19951;-87
2022/12/02 10:20:44;;;;;;;;;;;6.40;99.90;;;;;;5055465;28;22099;-87
2022/12/02 10:23:11;;;;;;;;;;;6.50;99.90;;;;;;5072185;28;19970;-88
2022/12/02 10:25:37;;;;;;;;;;;6.40;99.90;;;;;;5071817;28;19908;-87
2022/12/02 10:28:03;;;;;;;;;;;;;;;;;;5071940;28;19927;-87
2022/12/02 10:30:29;;;;;;;;;;;6.40;99.90;;;;;;5071899;28;19908;-87
2022/12/02 10:33:05;;;;;;;;;;;6.40;99.90;;;;;;5071855;28;19915;-87
2022/12/02 10:35:42;;;;;;;;;;;6.50;99.90;;;;;;5071987;28;19956;-86
2022/12/02 10:38:40;;;;;;;;;;;6.60;99.90;;;;;;5071890;28;19916;-86
2022/12/02 10:41:14;;;;;;;;;;;6.60;99.90;;;;;;5038935;28;19909;-88
2022/12/02 10:43:43;;;;;;;;;;;6.60;99.90;;;;;;5069574;28;19916;-86
2022/12/02 10:46:15;;;;;;;;;;;6.60;99.90;;;;;;5068724;28;19999;-88
2022/12/02 10:48:40;;;;;;;;;;;6.60;99.90;;;;;;5051934;28;19912;-87
2022/12/02 10:51:12;;;;;;;;;;;6.70;99.90;;;;;;5051728;28;19912;-87
2022/12/02 10:53:38;;;;;;;;;;;6.70;99.90;;;;;;5061570;28;19909;-86
2022/12/02 10:56:03;;;;;;;;;;;6.70;99.90;;;;;;5070844;28;19915;-87
2022/12/02 10:58:29;;;;;;;;;;;6.70;99.90;;;;;;5071701;28;19909;-88
2022/12/02 11:00:56;;;;;;;;;;;6.80;99.90;;;;;;5071282;28;20258;-87
2022/12/02 11:03:22;;;;;;;;;;;6.70;99.90;;;;;;5071645;28;19913;-87
2022/12/02 11:05:48;;;;;;;;;;;6.70;99.90;;;;;;5071750;28;19908;-87
2022/12/02 11:08:22;;;;;;;;;;;6.70;99.90;;;;;;5071451;28;19912;-88
2022/12/02 11:10:50;;;;;;;;;;;6.70;99.90;;;;;;5072801;28;19948;-88
2022/12/02 11:13:29;;;;;;;;;;;6.60;99.90;;;;;;5075504;28;19908;-88
2022/12/02 11:15:55;;;;;;;;;;;6.70;99.90;;;;;;5075198;28;19984;-88
2022/12/02 11:18:23;;;;;;;;;;;6.70;99.90;;;;;;5075452;28;19908;-88
2022/12/02 11:20:52;;;;;;;;;;;6.70;99.90;;;;;;5075200;28;19924;-87
2022/12/02 11:23:26;;;;;;;;;;;6.80;99.90;;;;;;5075168;28;19908;-88
2022/12/02 11:25:55;;;;;;;;;;;6.80;99.90;;;;;;5075622;28;19909;-86
2022/12/02 11:29:03;;;;;;;;;;;6.80;99.90;;;;;;5075259;28;20417;-88
2022/12/02 11:31:41;;;;;;;;;;;6.70;99.90;;;;;;5074316;28;19915;-87
2022/12/02 11:34:22;;;;;;;;;;;6.60;99.90;;;;;;5077974;28;20437;-86
2022/12/02 11:37:08;;;;;;;;;;;6.70;99.90;;;;;;5077249;28;19912;-87
2022/12/02 11:39:40;;;;;;;;;;;6.40;99.90;;;;;;5075251;28;19909;-88
2022/12/02 11:42:05;;;;;;;;;;;6.50;99.90;;;;;;5075180;28;19916;-86
2022/12/02 11:44:33;;;;;;;;;;;6.60;99.90;;;;;;5076048;28;19909;-86
2022/12/02 11:47:02;;;;;;;;;;;6.90;99.90;;;;;;5075006;28;19909;-86
2022/12/02 11:49:35;;;;;;;;;;;6.60;99.90;;;;;;5075483;28;19909;-86
2022/12/02 11:52:21;;;;;;;;;;;6.60;99.90;;;;;;5076501;28;19931;-87
2022/12/02 11:54:49;;;;;;;;;;;6.70;99.90;;;;;;5075228;28;19909;-86
2022/12/02 11:57:17;;;;;;;;;;;7.00;99.90;;;;;;5075675;28;20294;-87
2022/12/02 11:59:43;;;;;;;;;;;6.70;99.90;;;;;;5076520;28;19915;-87
2022/12/02 12:02:13;;;;;;;;;;;6.80;99.90;;;;;;5075046;28;19920;-87
2022/12/02 12:04:39;;;;;;;;;;;6.70;99.90;;;;;;5074826;28;20308;-86
2022/12/02 12:07:05;;;;;;;;;;;6.40;99.90;;;;;;5074585;28;19951;-87
2022/12/02 12:09:30;;;;;;;;;;;6.60;99.90;;;;;;5074601;28;19936;-87
2022/12/02 12:12:06;;;;;;;;;;;6.70;99.90;;;;;;5074650;28;20010;-86
2022/12/02 12:14:31;;;;;;;;;;;6.60;99.90;;;;;;5075697;28;19909;-87
2022/12/02 12:17:16;;;;;;;;;;;6.50;99.90;;;;;;5075714;28;20396;-86
2022/12/02 12:19:42;;;;;;;;;;;6.60;99.90;;;;;;5075167;28;20243;-87
2022/12/02 12:22:24;;;;;;;;;;;6.50;99.90;;;;;;5073824;28;19908;-85
2022/12/02 12:24:50;;;;;;;;;;;6.40;99.90;;;;;;5074515;28;19916;-86
2022/12/02 12:27:33;;;;;;;;;;;6.50;99.90;;;;;;5074152;28;19920;-86
2022/12/02 12:29:58;;;;;;;;;;;6.60;99.90;;;;;;5074254;28;19908;-85
2022/12/02 12:32:24;;;;;;;;;;;6.80;99.90;;;;;;5073922;28;20018;-86
2022/12/02 12:34:52;;;;;;;;;;;6.90;99.90;;;;;;5074071;28;19908;-88
2022/12/02 12:37:17;;;;;;;;;;;7.00;99.90;;;;;;5066254;28;19908;-86
2022/12/02 12:39:43;;;;;;;;;;;6.90;99.90;;;;;;5059258;28;19908;-85
2022/12/02 12:42:08;;;;;;;;;;;6.70;99.90;;;;;;5073845;28;19908;-85
2022/12/02 12:44:34;;;;;;;;;;;6.70;99.90;;;;;;5073873;28;20358;-86
2022/12/02 12:47:01;;;;;;;;;;;6.80;99.90;;;;;;5073786;28;19956;-87
2022/12/02 12:49:26;;;;;;;;;;;7.00;99.90;;;;;;5073827;28;20289;-86
2022/12/02 12:51:52;;;;;;;;;;;7.00;99.90;;;;;;5073861;28;19908;-86
2022/12/02 12:54:17;;;;;;;;;;;7.10;99.90;;;;;;5073822;28;20003;-87
2022/12/02 12:56:43;;;;;;;;;;;7.10;99.90;;;;;;5073704;28;19908;-86
2022/12/02 12:59:08;;;;;;;;;;;7.10;99.90;;;;;;5073739;28;19908;-85
2022/12/02 13:01:34;;;;;;;;;;;7.10;99.90;;;;;;5073624;28;20376;-87
2022/12/02 13:04:00;;;;;;;;;;;7.20;99.90;;;;;;5073398;28;19915;-87
2022/12/02 13:06:25;;;;;;;;;;;7.30;99.90;;;;;;5074164;28;20007;-88
2022/12/02 13:08:51;;;;;;;;;;;7.30;99.90;;;;;;5079625;28;19912;-88
2022/12/02 13:11:16;;;;;;;;;;;7.20;99.90;;;;;;5078936;28;19956;-88
2022/12/02 13:13:42;;;;;;;;;;;7.30;99.90;;;;;;5078606;28;19909;-87
2022/12/02 13:16:07;;;;;;;;;;;7.20;99.90;;;;;;5079111;28;19908;-87
2022/12/02 13:18:33;;;;;;;;;;;7.10;99.90;;;;;;5079245;28;19909;-87
2022/12/02 13:20:58;;;;;;;;;;;7.20;99.90;;;;;;5079077;28;19909;-88
2022/12/02 13:23:23;;;;;;;;;;;7.10;99.90;;;;;;5078670;28;19908;-88
2022/12/02 13:25:49;;;;;;;;;;;7.00;99.90;;;;;;5077818;28;20015;-87
2022/12/02 13:28:14;;;;;;;;;;;7.00;99.90;;;;;;5079150;28;19912;-87
2022/12/02 13:30:40;;;;;;;;;;;6.80;99.90;;;;;;5075374;28;20461;-87
2022/12/02 13:33:05;;;;;;;;;;;6.80;99.90;;;;;;5074453;28;19912;-88
2022/12/02 13:35:31;;;;;;;;;;;6.80;99.90;;;;;;5072862;28;19908;-88
2022/12/02 13:37:59;;;;;;;;;;;6.90;99.90;;;;;;5073608;28;19914;-87
2022/12/02 13:40:24;;;;;;;;;;;6.90;99.90;;;;;;5074428;28;19957;-88
2022/12/02 13:42:50;;;;;;;;;;;6.90;99.90;;;;;;5076795;28;20003;-89
2022/12/02 13:45:15;;;;;;;;;;;6.90;99.90;;;;;;5075180;28;19965;-88
2022/12/02 13:47:41;;;;;;;;;;;7.00;99.90;;;;;;5073078;28;19952;-88
2022/12/02 13:50:07;;;;;;;;;;;7.00;99.90;;;;;;5075655;28;19908;-87
2022/12/02 13:52:32;;;;;;;;;;;6.90;99.90;;;;;;5076678;28;19944;-87
2022/12/02 13:54:58;;;;;;;;;;;6.70;99.90;;;;;;5077801;28;19920;-86
2022/12/02 13:57:23;;;;;;;;;;;6.70;99.90;;;;;;5079814;28;19930;-86
2022/12/02 13:59:52;;;;;;;;;;;6.70;99.90;;;;;;5076311;28;19908;-88
2022/12/02 14:02:17;;;;;;;;;;;6.70;99.90;;;;;;5083742;28;19913;-93
2022/12/02 14:04:43;;;;;;;;;;;6.70;99.90;;;;;;5097882;28;19908;-89
2022/12/02 14:07:08;;;;;;;;;;;6.50;99.90;;;;;;5074737;28;19909;-88
2022/12/02 14:09:36;;;;;;;;;;;6.60;99.90;;;;;;5075972;28;19908;-89
2022/12/02 14:12:02;;;;;;;;;;;6.60;99.90;;;;;;5075443;28;19908;-90
2022/12/02 14:14:27;;;;;;;;;;;6.50;99.90;;;;;;5074289;28;19961;-88
2022/12/02 14:16:53;;;;;;;;;;;6.40;99.90;;;;;;5073622;28;19908;-89
2022/12/02 14:19:18;;;;;;;;;;;6.40;99.90;;;;;;5073844;28;20050;-88
2022/12/02 14:21:44;;;;;;;;;;;6.30;99.90;;;;;;5073896;28;19908;-89
2022/12/02 14:24:10;;;;;;;;;;;;;;;;;;5073920;28;20285;-88
2022/12/02 14:26:35;;;;;;;;;;;6.30;99.90;;;;;;5074982;28;20009;-88
2022/12/02 14:29:01;;;;;;;;;;;6.30;99.90;;;;;;5075022;28;19912;-88
2022/12/02 14:31:26;;;;;;;;;;;6.30;99.90;;;;;;5075556;28;19908;-88
2022/12/02 14:33:52;;;;;;;;;;;6.20;99.90;;;;;;5075512;28;19909;-88
2022/12/02 14:36:18;;;;;;;;;;;6.20;99.90;;;;;;5075428;28;19909;-88